Hartford, Connecticut
Traffic Map
Current Weather Conditions
Hartford, Connecticut
Overcast
Overcast
66°
Feels Like: 66°
Wind Chill: 66° Ceiling: 3900
Heat Index: 66° Visibility: 10mi
Dew Point: 52° Wind: 8mph
Humidity: 60% Direction: 240° (WSW)
Pressure: 29.97in Gusts: 0mph
Raw Report DataKHFD 162253Z 24007KT 220V290 10SM BKN039 BKN046 OVC080 19/11 A2997 RMK AO2 SLP148 T01890111
Traffic Incident Summary
Active as of:
Severity:
Category:
InformationThere was an issue retrieving the traffic information for this location. Please try a different location or try again shortly.
Advertisements
Track Severe Weather on mobile